Ana Sayfa
METAR-TAF:

METAR-TAF

Havaalanları :

Elâzığ, Türkiye

Elâzığ Havalimanı

Enlem: 38-36N, Boylam: 039-17E, yükseklik: 902 m

Güncel hava durumu gözlemi

Rapor saat 02:50 UTC de 40 dakika önce yapıldı.
Rüzgar batıdan 4 kt, güney ve kuzeybatı arasında değişken
Sıcaklık 0°C
Nem 100%
Basınç 1010 hPa
Görüş mesafesi 10 km veya daha fazla
3500 ft yükseklikte az bulutlu
10000 ft yükseklikte parçalı bulutlu

METAR: LTCA 260250Z 28004KT 180V320 9999 FEW035 SCT100 00/M00 Q1010 TEMPO 3500 BR

Saat: 06:30 (03:30 UTC)

Tahmin

Rapor saat 01:40 UTC de 1 saat ve 50 dakika önce yapıldı.
Ayın 26'si saat 03 UTC'den ayın 26'si saat 12 UTC'ye kadar geçerli Tahmin
Rüzgar değişken yönden 2 kt
Görüş mesafesi 10 km veya daha fazla
3500 ft yükseklikte az bulutlu
10000 ft yükseklikte parçalı bulutlu
Geçici
ayın 26'si saat 03 UTC'den ayın 26'si saat 05 UTC'ye kadar
Görüş mesafesi: 3500 m
Pus

TAF: LTCA 260140Z 2603/2612 VRB02KT 9999 FEW035 SCT100 TEMPO 2603/2605 3500 BR

4.000'den fazla havaalanı için hava durumu gözlemleri ve tahminleri (METAR ve TAF raporları).

Kullanılabilir istasyonlar harita üzerinde sarı ve kırmızı noktalarla gösterilir.

İstasyonun adını görmek için fareyi noktanın üzerinde gezdirin.

Sonrasında hava gözlem ve tahminlerini görmek için tıklayın.

Haritayı değiştirmek için: yaklaştırmak için siyah artı işaretli yeşil düğmeye ve uzaklaştırmak için de eksi işaretli düğmeye hızla tıklayın; bitişik haritalar için yeşil okları kullanın.


METAR-TAF: